Harbor Springs, Michigan
Current Conditions -  °F | °C
As of 11:34 PM on Friday 24 Oct 2014 (Local Time) from KMGN Reporting Station
Scattered Clouds Scattered Clouds  
Wind Chill: 50°   Ceiling: Unl
Heat Index: 50°   Visibility: 10mi
Dew Point: 47°   Wind: 5mph
Humidity: 88%   Direction: 240°WSW
Pressure: 29.84"   Gusts: NA
Location:  45.43°N, 84.99°W
Report Text: KMGN 250334Z AUTO 24004KT 10SM SCT011 10/08 A2984 RMK AO2 T01010082
Loading
Personal Weather Stations






























Interactive Weather Map
Tropical Storm Tracking
New forecast layout! Learn more

10-Day Weather Forecast

Advertisements
Track Severe Weather on mobile